Aviation Digital Data Service (ADDS)

Output produced by METARs form (1309 UTC 22 November 2017)
found at http://aviationweather.gov/adds/metars/
 
KMSY 221120Z 2212/2318 02007KT P6SM FEW100 OVC160 
     FM231200 36012KT P6SM SKC